sensor_id;sensor_type;location;lat;lon;timestamp;P1;durP1;ratioP1;P2;durP2;ratioP2
75408;SDS011;63979;55.644;37.734;2022-10-16T00:00:05;6.13;;;3.60;;
75408;SDS011;63979;55.644;37.734;2022-10-16T00:05:07;4.22;;;2.85;;
75408;SDS011;63979;55.644;37.734;2022-10-16T00:10:08;5.38;;;3.47;;
75408;SDS011;63979;55.644;37.734;2022-10-16T00:15:10;7.20;;;3.90;;
75408;SDS011;63979;55.644;37.734;2022-10-16T00:20:14;5.03;;;3.33;;
75408;SDS011;63979;55.644;37.734;2022-10-16T00:25:34;7.57;;;3.65;;
75408;SDS011;63979;55.644;37.734;2022-10-16T00:30:38;5.15;;;3.53;;
75408;SDS011;63979;55.644;37.734;2022-10-16T00:35:39;7.05;;;4.35;;
75408;SDS011;63979;55.644;37.734;2022-10-16T00:40:40;7.25;;;4.22;;
75408;SDS011;63979;55.644;37.734;2022-10-16T00:45:42;5.78;;;4.03;;
75408;SDS011;63979;55.644;37.734;2022-10-16T00:50:45;7.68;;;3.50;;
75408;SDS011;63979;55.644;37.734;2022-10-16T00:55:46;5.43;;;3.63;;
75408;SDS011;63979;55.644;37.734;2022-10-16T01:00:47;6.93;;;4.20;;
75408;SDS011;63979;55.644;37.734;2022-10-16T01:05:58;6.80;;;4.07;;
75408;SDS011;63979;55.644;37.734;2022-10-16T01:16:59;5.65;;;3.72;;
75408;SDS011;63979;55.644;37.734;2022-10-16T01:22:04;8.75;;;3.70;;
75408;SDS011;63979;55.644;37.734;2022-10-16T01:27:12;4.70;;;3.47;;
75408;SDS011;63979;55.644;37.734;2022-10-16T01:38:12;7.80;;;3.67;;
75408;SDS011;63979;55.644;37.734;2022-10-16T01:43:09;5.97;;;3.80;;
75408;SDS011;63979;55.644;37.734;2022-10-16T01:48:14;6.50;;;3.90;;
75408;SDS011;63979;55.644;37.734;2022-10-16T01:53:18;10.07;;;4.47;;
75408;SDS011;63979;55.644;37.734;2022-10-16T01:58:20;7.25;;;4.30;;
75408;SDS011;63979;55.644;37.734;2022-10-16T02:03:24;8.38;;;4.53;;
75408;SDS011;63979;55.644;37.734;2022-10-16T02:08:27;8.93;;;3.85;;
75408;SDS011;63979;55.644;37.734;2022-10-16T02:13:35;7.32;;;4.18;;
75408;SDS011;63979;55.644;37.734;2022-10-16T02:18:40;7.28;;;3.78;;
75408;SDS011;63979;55.644;37.734;2022-10-16T02:29:07;7.80;;;4.47;;
75408;SDS011;63979;55.644;37.734;2022-10-16T02:34:11;8.73;;;5.05;;
75408;SDS011;63979;55.644;37.734;2022-10-16T02:39:14;9.15;;;4.00;;
75408;SDS011;63979;55.644;37.734;2022-10-16T02:44:17;7.18;;;4.45;;
75408;SDS011;63979;55.644;37.734;2022-10-16T02:49:18;7.47;;;4.88;;
75408;SDS011;63979;55.644;37.734;2022-10-16T02:54:19;8.63;;;4.80;;
75408;SDS011;63979;55.644;37.734;2022-10-16T02:59:20;8.57;;;4.22;;
75408;SDS011;63979;55.644;37.734;2022-10-16T03:04:21;8.55;;;4.05;;
75408;SDS011;63979;55.644;37.734;2022-10-16T03:09:23;7.03;;;4.20;;
75408;SDS011;63979;55.644;37.734;2022-10-16T03:14:24;8.40;;;4.03;;
75408;SDS011;63979;55.644;37.734;2022-10-16T03:19:25;6.72;;;3.78;;
75408;SDS011;63979;55.644;37.734;2022-10-16T03:24:27;7.68;;;3.95;;
75408;SDS011;63979;55.644;37.734;2022-10-16T03:29:28;6.47;;;4.63;;
75408;SDS011;63979;55.644;37.734;2022-10-16T03:34:30;6.15;;;4.53;;
75408;SDS011;63979;55.644;37.734;2022-10-16T03:39:31;7.78;;;3.70;;
75408;SDS011;63979;55.644;37.734;2022-10-16T03:44:32;8.30;;;4.15;;
75408;SDS011;63979;55.644;37.734;2022-10-16T03:49:33;7.35;;;4.32;;
75408;SDS011;63979;55.644;37.734;2022-10-16T03:54:34;11.90;;;5.00;;
75408;SDS011;63979;55.644;37.734;2022-10-16T03:59:35;7.35;;;4.63;;
75408;SDS011;63979;55.644;37.734;2022-10-16T04:04:36;9.40;;;4.85;;
75408;SDS011;63979;55.644;37.734;2022-10-16T04:09:37;7.65;;;5.38;;
75408;SDS011;63979;55.644;37.734;2022-10-16T04:14:39;10.27;;;5.95;;
75408;SDS011;63979;55.644;37.734;2022-10-16T04:19:40;7.65;;;4.88;;
75408;SDS011;63979;55.644;37.734;2022-10-16T04:24:41;8.00;;;5.35;;
75408;SDS011;63979;55.644;37.734;2022-10-16T04:29:42;7.80;;;4.70;;
75408;SDS011;63979;55.644;37.734;2022-10-16T04:34:43;13.15;;;5.53;;
75408;SDS011;63979;55.644;37.734;2022-10-16T04:39:44;6.38;;;4.63;;
75408;SDS011;63979;55.644;37.734;2022-10-16T04:44:46;6.05;;;4.22;;
75408;SDS011;63979;55.644;37.734;2022-10-16T04:49:48;8.98;;;4.47;;
75408;SDS011;63979;55.644;37.734;2022-10-16T04:54:49;11.00;;;5.18;;
75408;SDS011;63979;55.644;37.734;2022-10-16T04:59:51;13.00;;;5.20;;
75408;SDS011;63979;55.644;37.734;2022-10-16T05:04:52;8.93;;;4.32;;
75408;SDS011;63979;55.644;37.734;2022-10-16T05:09:53;7.47;;;4.60;;
75408;SDS011;63979;55.644;37.734;2022-10-16T05:14:54;7.75;;;4.43;;
75408;SDS011;63979;55.644;37.734;2022-10-16T05:19:58;8.20;;;4.97;;
75408;SDS011;63979;55.644;37.734;2022-10-16T05:25:00;7.20;;;4.50;;
75408;SDS011;63979;55.644;37.734;2022-10-16T05:30:02;8.13;;;4.30;;
75408;SDS011;63979;55.644;37.734;2022-10-16T05:35:04;9.30;;;4.50;;
75408;SDS011;63979;55.644;37.734;2022-10-16T05:40:05;9.02;;;4.57;;
75408;SDS011;63979;55.644;37.734;2022-10-16T05:45:09;6.22;;;4.55;;
75408;SDS011;63979;55.644;37.734;2022-10-16T05:50:12;8.63;;;4.47;;
75408;SDS011;63979;55.644;37.734;2022-10-16T05:55:13;9.93;;;5.18;;
75408;SDS011;63979;55.644;37.734;2022-10-16T06:00:14;7.05;;;4.72;;
75408;SDS011;63979;55.644;37.734;2022-10-16T06:05:16;9.65;;;5.55;;
75408;SDS011;63979;55.644;37.734;2022-10-16T06:15:18;8.88;;;5.57;;
75408;SDS011;63979;55.644;37.734;2022-10-16T06:20:19;6.65;;;4.80;;
75408;SDS011;63979;55.644;37.734;2022-10-16T06:25:20;10.27;;;5.97;;
75408;SDS011;63979;55.644;37.734;2022-10-16T06:30:21;9.63;;;5.22;;
75408;SDS011;63979;55.644;37.734;2022-10-16T06:35:22;9.02;;;5.10;;
75408;SDS011;63979;55.644;37.734;2022-10-16T06:40:24;7.32;;;4.55;;
75408;SDS011;63979;55.644;37.734;2022-10-16T06:45:25;8.23;;;5.07;;
75408;SDS011;63979;55.644;37.734;2022-10-16T06:50:26;9.77;;;5.93;;
75408;SDS011;63979;55.644;37.734;2022-10-16T06:55:27;7.57;;;5.45;;
75408;SDS011;63979;55.644;37.734;2022-10-16T07:00:29;8.32;;;4.97;;
75408;SDS011;63979;55.644;37.734;2022-10-16T07:05:30;8.60;;;4.70;;
75408;SDS011;63979;55.644;37.734;2022-10-16T07:10:31;6.88;;;5.10;;
75408;SDS011;63979;55.644;37.734;2022-10-16T07:15:33;6.25;;;4.43;;
75408;SDS011;63979;55.644;37.734;2022-10-16T07:20:34;5.15;;;4.60;;
75408;SDS011;63979;55.644;37.734;2022-10-16T07:25:35;7.13;;;3.70;;
75408;SDS011;63979;55.644;37.734;2022-10-16T07:30:37;10.60;;;4.82;;
75408;SDS011;63979;55.644;37.734;2022-10-16T07:35:38;6.30;;;3.88;;
75408;SDS011;63979;55.644;37.734;2022-10-16T07:40:47;8.15;;;4.82;;
75408;SDS011;63979;55.644;37.734;2022-10-16T07:45:49;6.75;;;4.82;;
75408;SDS011;63979;55.644;37.734;2022-10-16T07:50:51;5.88;;;4.35;;
75408;SDS011;63979;55.644;37.734;2022-10-16T07:55:52;8.48;;;4.90;;
75408;SDS011;63979;55.644;37.734;2022-10-16T08:00:57;14.07;;;12.57;;
75408;SDS011;63979;55.644;37.734;2022-10-16T08:05:59;7.05;;;4.70;;
75408;SDS011;63979;55.644;37.734;2022-10-16T08:11:01;6.80;;;4.63;;
75408;SDS011;63979;55.644;37.734;2022-10-16T08:16:04;5.13;;;4.60;;
75408;SDS011;63979;55.644;37.734;2022-10-16T08:21:18;9.60;;;5.63;;
75408;SDS011;63979;55.644;37.734;2022-10-16T08:26:22;6.70;;;4.80;;
75408;SDS011;63979;55.644;37.734;2022-10-16T08:31:24;6.88;;;5.07;;
75408;SDS011;63979;55.644;37.734;2022-10-16T08:36:27;7.50;;;4.57;;
75408;SDS011;63979;55.644;37.734;2022-10-16T08:52:08;6.13;;;3.88;;
75408;SDS011;63979;55.644;37.734;2022-10-16T08:57:15;11.15;;;4.72;;
75408;SDS011;63979;55.644;37.734;2022-10-16T09:07:48;5.35;;;3.47;;
75408;SDS011;63979;55.644;37.734;2022-10-16T09:23:46;7.10;;;3.72;;
75408;SDS011;63979;55.644;37.734;2022-10-16T09:28:47;6.30;;;3.42;;
75408;SDS011;63979;55.644;37.734;2022-10-16T09:33:51;5.90;;;3.67;;
75408;SDS011;63979;55.644;37.734;2022-10-16T09:39:06;5.80;;;3.30;;
75408;SDS011;63979;55.644;37.734;2022-10-16T09:44:16;4.07;;;3.28;;
75408;SDS011;63979;55.644;37.734;2022-10-16T09:49:25;6.25;;;3.95;;
75408;SDS011;63979;55.644;37.734;2022-10-16T09:54:27;6.68;;;3.38;;
75408;SDS011;63979;55.644;37.734;2022-10-16T09:59:28;11.02;;;2.97;;
75408;SDS011;63979;55.644;37.734;2022-10-16T10:04:39;4.97;;;2.22;;
75408;SDS011;63979;55.644;37.734;2022-10-16T10:09:45;3.28;;;2.60;;
75408;SDS011;63979;55.644;37.734;2022-10-16T10:14:47;4.45;;;2.55;;
75408;SDS011;63979;55.644;37.734;2022-10-16T10:19:52;5.13;;;3.08;;
75408;SDS011;63979;55.644;37.734;2022-10-16T10:41:20;3.42;;;2.45;;
75408;SDS011;63979;55.644;37.734;2022-10-16T10:46:32;3.75;;;2.50;;
75408;SDS011;63979;55.644;37.734;2022-10-16T10:57:21;3.85;;;2.22;;
75408;SDS011;63979;55.644;37.734;2022-10-16T11:07:39;3.00;;;2.38;;
75408;SDS011;63979;55.644;37.734;2022-10-16T11:12:47;3.10;;;2.38;;
75408;SDS011;63979;55.644;37.734;2022-10-16T11:23:20;4.10;;;2.20;;
75408;SDS011;63979;55.644;37.734;2022-10-16T11:28:50;3.72;;;2.50;;
75408;SDS011;63979;55.644;37.734;2022-10-16T11:39:30;7.28;;;3.15;;
75408;SDS011;63979;55.644;37.734;2022-10-16T11:44:41;7.43;;;2.65;;
75408;SDS011;63979;55.644;37.734;2022-10-16T11:49:52;5.85;;;2.78;;
75408;SDS011;63979;55.644;37.734;2022-10-16T11:55:17;2.55;;;2.30;;
75408;SDS011;63979;55.644;37.734;2022-10-16T12:00:34;3.90;;;2.35;;
75408;SDS011;63979;55.644;37.734;2022-10-16T12:11:08;4.43;;;2.67;;
75408;SDS011;63979;55.644;37.734;2022-10-16T12:16:30;5.50;;;2.47;;
75408;SDS011;63979;55.644;37.734;2022-10-16T12:21:31;3.00;;;2.35;;
75408;SDS011;63979;55.644;37.734;2022-10-16T12:26:33;3.75;;;2.58;;
75408;SDS011;63979;55.644;37.734;2022-10-16T12:31:42;3.70;;;2.15;;
75408;SDS011;63979;55.644;37.734;2022-10-16T12:36:46;3.65;;;2.28;;
75408;SDS011;63979;55.644;37.734;2022-10-16T12:42:00;3.75;;;2.33;;
75408;SDS011;63979;55.644;37.734;2022-10-16T12:47:02;5.10;;;2.78;;
75408;SDS011;63979;55.644;37.734;2022-10-16T12:52:04;4.55;;;2.28;;
75408;SDS011;63979;55.644;37.734;2022-10-16T13:07:39;4.30;;;2.80;;
75408;SDS011;63979;55.644;37.734;2022-10-16T13:18:16;4.93;;;2.70;;
75408;SDS011;63979;55.644;37.734;2022-10-16T13:28:42;4.45;;;2.67;;
75408;SDS011;63979;55.644;37.734;2022-10-16T13:33:45;5.43;;;2.72;;
75408;SDS011;63979;55.644;37.734;2022-10-16T13:39:00;4.22;;;2.33;;
75408;SDS011;63979;55.644;37.734;2022-10-16T13:44:18;3.85;;;2.67;;
75408;SDS011;63979;55.644;37.734;2022-10-16T13:49:20;15.45;;;8.85;;
75408;SDS011;63979;55.644;37.734;2022-10-16T13:54:22;3.35;;;2.00;;
75408;SDS011;63979;55.644;37.734;2022-10-16T14:04:33;3.88;;;2.45;;
75408;SDS011;63979;55.644;37.734;2022-10-16T14:09:34;4.43;;;2.60;;
75408;SDS011;63979;55.644;37.734;2022-10-16T14:14:57;5.53;;;2.80;;
75408;SDS011;63979;55.644;37.734;2022-10-16T14:20:02;4.18;;;2.35;;
75408;SDS011;63979;55.644;37.734;2022-10-16T14:30:22;5.07;;;3.25;;
75408;SDS011;63979;55.644;37.734;2022-10-16T14:35:31;4.38;;;2.63;;
75408;SDS011;63979;55.644;37.734;2022-10-16T14:40:34;5.47;;;3.08;;
75408;SDS011;63979;55.644;37.734;2022-10-16T14:45:38;8.15;;;4.07;;
75408;SDS011;63979;55.644;37.734;2022-10-16T14:50:42;6.13;;;3.05;;
75408;SDS011;63979;55.644;37.734;2022-10-16T14:55:43;6.68;;;4.40;;
75408;SDS011;63979;55.644;37.734;2022-10-16T15:00:45;5.25;;;3.72;;
75408;SDS011;63979;55.644;37.734;2022-10-16T15:05:46;12.02;;;5.47;;
75408;SDS011;63979;55.644;37.734;2022-10-16T15:10:47;13.20;;;5.72;;
75408;SDS011;63979;55.644;37.734;2022-10-16T15:15:49;8.82;;;4.60;;
75408;SDS011;63979;55.644;37.734;2022-10-16T15:20:50;9.70;;;5.82;;
75408;SDS011;63979;55.644;37.734;2022-10-16T15:25:52;8.63;;;5.15;;
75408;SDS011;63979;55.644;37.734;2022-10-16T15:30:55;9.63;;;5.07;;
75408;SDS011;63979;55.644;37.734;2022-10-16T15:35:58;13.38;;;4.78;;
75408;SDS011;63979;55.644;37.734;2022-10-16T15:41:00;11.23;;;5.25;;
75408;SDS011;63979;55.644;37.734;2022-10-16T15:46:05;11.30;;;6.15;;
75408;SDS011;63979;55.644;37.734;2022-10-16T15:51:09;10.45;;;6.45;;
75408;SDS011;63979;55.644;37.734;2022-10-16T15:56:12;12.27;;;6.20;;
75408;SDS011;63979;55.644;37.734;2022-10-16T16:01:14;11.55;;;6.65;;
75408;SDS011;63979;55.644;37.734;2022-10-16T16:06:16;14.73;;;7.20;;
75408;SDS011;63979;55.644;37.734;2022-10-16T16:11:17;10.05;;;6.38;;
75408;SDS011;63979;55.644;37.734;2022-10-16T16:16:19;16.42;;;6.63;;
75408;SDS011;63979;55.644;37.734;2022-10-16T16:21:20;9.48;;;5.72;;
75408;SDS011;63979;55.644;37.734;2022-10-16T16:26:22;10.38;;;5.25;;
75408;SDS011;63979;55.644;37.734;2022-10-16T16:31:27;11.57;;;6.50;;
75408;SDS011;63979;55.644;37.734;2022-10-16T16:36:29;11.15;;;5.72;;
75408;SDS011;63979;55.644;37.734;2022-10-16T16:41:30;14.80;;;6.95;;
75408;SDS011;63979;55.644;37.734;2022-10-16T16:46:32;15.73;;;6.82;;
75408;SDS011;63979;55.644;37.734;2022-10-16T16:51:34;10.52;;;6.00;;
75408;SDS011;63979;55.644;37.734;2022-10-16T16:56:35;16.23;;;6.15;;
75408;SDS011;63979;55.644;37.734;2022-10-16T17:01:37;9.85;;;5.45;;
75408;SDS011;63979;55.644;37.734;2022-10-16T17:06:38;6.78;;;4.88;;
75408;SDS011;63979;55.644;37.734;2022-10-16T17:11:41;11.95;;;5.95;;
75408;SDS011;63979;55.644;37.734;2022-10-16T17:16:46;13.68;;;5.80;;
75408;SDS011;63979;55.644;37.734;2022-10-16T17:21:49;9.13;;;5.18;;
75408;SDS011;63979;55.644;37.734;2022-10-16T17:26:51;10.10;;;5.35;;
75408;SDS011;63979;55.644;37.734;2022-10-16T17:31:52;9.90;;;5.95;;
75408;SDS011;63979;55.644;37.734;2022-10-16T17:36:56;10.35;;;6.40;;
75408;SDS011;63979;55.644;37.734;2022-10-16T17:41:57;10.32;;;5.55;;
75408;SDS011;63979;55.644;37.734;2022-10-16T17:46:58;10.60;;;4.93;;
75408;SDS011;63979;55.644;37.734;2022-10-16T17:51:59;12.05;;;4.97;;
75408;SDS011;63979;55.644;37.734;2022-10-16T17:57:02;8.82;;;4.50;;
75408;SDS011;63979;55.644;37.734;2022-10-16T18:02:03;10.90;;;6.00;;
75408;SDS011;63979;55.644;37.734;2022-10-16T18:07:04;6.22;;;4.35;;
75408;SDS011;63979;55.644;37.734;2022-10-16T18:12:06;8.63;;;4.28;;
75408;SDS011;63979;55.644;37.734;2022-10-16T18:17:08;5.82;;;3.75;;
75408;SDS011;63979;55.644;37.734;2022-10-16T18:22:09;6.07;;;3.90;;
75408;SDS011;63979;55.644;37.734;2022-10-16T18:27:10;6.68;;;3.70;;
75408;SDS011;63979;55.644;37.734;2022-10-16T18:32:11;9.90;;;4.35;;
75408;SDS011;63979;55.644;37.734;2022-10-16T18:37:12;8.90;;;6.20;;
75408;SDS011;63979;55.644;37.734;2022-10-16T18:42:17;5.53;;;4.20;;
75408;SDS011;63979;55.644;37.734;2022-10-16T18:47:18;5.15;;;3.38;;
75408;SDS011;63979;55.644;37.734;2022-10-16T18:52:19;8.13;;;4.47;;
75408;SDS011;63979;55.644;37.734;2022-10-16T18:57:23;8.85;;;4.30;;
75408;SDS011;63979;55.644;37.734;2022-10-16T19:02:27;8.77;;;3.83;;
75408;SDS011;63979;55.644;37.734;2022-10-16T19:07:28;11.13;;;3.70;;
75408;SDS011;63979;55.644;37.734;2022-10-16T19:12:29;5.20;;;3.40;;
75408;SDS011;63979;55.644;37.734;2022-10-16T19:17:31;9.50;;;3.78;;
75408;SDS011;63979;55.644;37.734;2022-10-16T19:22:32;6.18;;;3.67;;
75408;SDS011;63979;55.644;37.734;2022-10-16T19:27:58;10.68;;;4.00;;
75408;SDS011;63979;55.644;37.734;2022-10-16T19:33:01;8.13;;;4.30;;
75408;SDS011;63979;55.644;37.734;2022-10-16T19:38:02;5.70;;;4.07;;
75408;SDS011;63979;55.644;37.734;2022-10-16T19:43:03;5.93;;;3.28;;
75408;SDS011;63979;55.644;37.734;2022-10-16T19:48:06;6.15;;;3.53;;
75408;SDS011;63979;55.644;37.734;2022-10-16T19:53:07;4.95;;;3.33;;
75408;SDS011;63979;55.644;37.734;2022-10-16T19:58:10;5.63;;;2.50;;
75408;SDS011;63979;55.644;37.734;2022-10-16T20:03:11;7.45;;;4.18;;
75408;SDS011;63979;55.644;37.734;2022-10-16T20:08:12;6.22;;;3.28;;
75408;SDS011;63979;55.644;37.734;2022-10-16T20:13:13;5.43;;;3.47;;
75408;SDS011;63979;55.644;37.734;2022-10-16T20:18:14;5.82;;;3.53;;
75408;SDS011;63979;55.644;37.734;2022-10-16T20:23:16;9.48;;;3.60;;
75408;SDS011;63979;55.644;37.734;2022-10-16T20:28:19;4.53;;;2.78;;
75408;SDS011;63979;55.644;37.734;2022-10-16T20:33:22;5.35;;;2.75;;
75408;SDS011;63979;55.644;37.734;2022-10-16T20:38:23;6.28;;;3.20;;
75408;SDS011;63979;55.644;37.734;2022-10-16T20:43:28;4.10;;;3.08;;
75408;SDS011;63979;55.644;37.734;2022-10-16T20:48:29;4.03;;;2.15;;
75408;SDS011;63979;55.644;37.734;2022-10-16T20:53:33;5.93;;;3.50;;
75408;SDS011;63979;55.644;37.734;2022-10-16T20:58:35;3.95;;;3.25;;
75408;SDS011;63979;55.644;37.734;2022-10-16T21:03:37;3.78;;;2.83;;
75408;SDS011;63979;55.644;37.734;2022-10-16T21:08:39;5.13;;;2.92;;
75408;SDS011;63979;55.644;37.734;2022-10-16T21:13:43;4.72;;;2.72;;
75408;SDS011;63979;55.644;37.734;2022-10-16T21:18:44;4.38;;;2.60;;
75408;SDS011;63979;55.644;37.734;2022-10-16T21:23:46;4.25;;;2.70;;
75408;SDS011;63979;55.644;37.734;2022-10-16T21:28:48;9.00;;;3.75;;
75408;SDS011;63979;55.644;37.734;2022-10-16T21:33:50;4.82;;;2.65;;
75408;SDS011;63979;55.644;37.734;2022-10-16T21:38:55;7.93;;;3.10;;
75408;SDS011;63979;55.644;37.734;2022-10-16T21:44:01;4.85;;;3.00;;
75408;SDS011;63979;55.644;37.734;2022-10-16T21:49:04;5.18;;;3.28;;
75408;SDS011;63979;55.644;37.734;2022-10-16T21:54:11;4.00;;;2.95;;
75408;SDS011;63979;55.644;37.734;2022-10-16T21:59:15;6.28;;;3.25;;
75408;SDS011;63979;55.644;37.734;2022-10-16T22:04:17;4.90;;;3.33;;
75408;SDS011;63979;55.644;37.734;2022-10-16T22:09:18;5.93;;;3.40;;
75408;SDS011;63979;55.644;37.734;2022-10-16T22:14:19;7.68;;;3.42;;
75408;SDS011;63979;55.644;37.734;2022-10-16T22:19:21;3.90;;;2.75;;
75408;SDS011;63979;55.644;37.734;2022-10-16T22:24:22;5.57;;;3.00;;
75408;SDS011;63979;55.644;37.734;2022-10-16T22:29:24;4.35;;;2.65;;
75408;SDS011;63979;55.644;37.734;2022-10-16T22:34:25;4.40;;;2.88;;
75408;SDS011;63979;55.644;37.734;2022-10-16T22:39:27;4.57;;;3.05;;
75408;SDS011;63979;55.644;37.734;2022-10-16T22:44:29;3.75;;;2.88;;
75408;SDS011;63979;55.644;37.734;2022-10-16T22:49:33;4.63;;;3.38;;
75408;SDS011;63979;55.644;37.734;2022-10-16T22:54:34;4.50;;;3.10;;
75408;SDS011;63979;55.644;37.734;2022-10-16T22:59:35;2.83;;;2.25;;
75408;SDS011;63979;55.644;37.734;2022-10-16T23:04:36;7.97;;;3.10;;
75408;SDS011;63979;55.644;37.734;2022-10-16T23:09:37;6.25;;;3.22;;
75408;SDS011;63979;55.644;37.734;2022-10-16T23:14:38;5.65;;;3.88;;
75408;SDS011;63979;55.644;37.734;2022-10-16T23:19:39;6.97;;;3.60;;
75408;SDS011;63979;55.644;37.734;2022-10-16T23:24:40;6.05;;;2.55;;
75408;SDS011;63979;55.644;37.734;2022-10-16T23:29:40;4.78;;;3.08;;
75408;SDS011;63979;55.644;37.734;2022-10-16T23:34:42;7.18;;;2.78;;
75408;SDS011;63979;55.644;37.734;2022-10-16T23:39:43;9.70;;;3.33;;
75408;SDS011;63979;55.644;37.734;2022-10-16T23:44:44;4.28;;;2.92;;
75408;SDS011;63979;55.644;37.734;2022-10-16T23:49:46;7.35;;;3.83;;
75408;SDS011;63979;55.644;37.734;2022-10-16T23:54:47;4.70;;;2.80;;
75408;SDS011;63979;55.644;37.734;2022-10-16T23:59:48;6.03;;;2.95;;
